Time;durP1;ratioP1;P1;durP2;ratioP2;P2;SDS_P1;SDS_P2;PMS_P1;PMS_P2;Temp;Humidity;BMP_temperature;BMP_pressure;BME280_temperature;BME280_humidity;BME280_pressure;Samples;Min_cycle;Max_cycle;Signal;HPM_P1;HPM_P2
2023/11/07 00:02:19;;;;;;;12.10;6.72;;;;;;;6.93;100.00;93408.22;5067650;28;20047;-77
2023/11/07 00:04:47;;;;;;;13.10;6.50;;;;;;;6.93;100.00;93407.41;5066260;28;20079;-77
2023/11/07 00:07:14;;;;;;;14.10;6.40;;;;;;;6.89;100.00;93414.66;5066048;28;20497;-77
2023/11/07 00:09:41;;;;;;;12.63;5.40;;;;;;;6.88;100.00;93422.50;5067494;28;20492;-77
2023/11/07 00:12:08;;;;;;;8.82;4.60;;;;;;;6.81;100.00;93427.56;5065427;28;20049;-77
2023/11/07 00:14:35;;;;;;;7.30;3.90;;;;;;;6.85;100.00;93433.09;5068333;28;20040;-80
2023/11/07 00:17:04;;;;;;;6.93;2.75;;;;;;;6.64;100.00;93414.22;5071462;28;20374;-77
2023/11/07 00:19:30;;;;;;;6.07;2.55;;;;;;;6.74;100.00;93435.13;5068102;28;20060;-77
2023/11/07 00:21:58;;;;;;;9.15;3.40;;;;;;;6.70;100.00;93433.13;5070243;28;20048;-77
2023/11/07 00:24:25;;;;;;;14.88;6.00;;;;;;;6.68;100.00;93430.75;5070383;28;20851;-77
2023/11/07 00:26:52;;;;;;;8.48;4.40;;;;;;;6.74;100.00;93434.34;5072793;28;20071;-78
2023/11/07 00:29:20;;;;;;;9.88;4.15;;;;;;;6.79;100.00;93432.03;5067920;28;20098;-77
2023/11/07 00:31:47;;;;;;;7.63;4.25;;;;;;;6.79;100.00;93432.03;5069839;28;20516;-77
2023/11/07 00:34:17;;;;;;;8.48;3.47;;;;;;;6.71;100.00;93434.72;5071140;28;20076;-77
2023/11/07 00:36:44;;;;;;;8.27;3.10;;;;;;;6.64;100.00;93424.41;5070120;28;20040;-79
2023/11/07 00:39:11;;;;;;;9.27;3.10;;;;;;;6.60;100.00;93423.19;5069117;28;20048;-79
2023/11/07 00:41:38;;;;;;;9.63;2.92;;;;;;;6.72;100.00;93454.16;5069419;28;20044;-79
2023/11/07 00:44:06;;;;;;;5.85;2.55;;;;;;;6.73;100.00;93453.19;5073802;28;20522;-79
2023/11/07 00:46:33;;;;;;;10.18;2.95;;;;;;;6.69;100.00;93455.31;5068426;28;20064;-79
2023/11/07 00:49:00;;;;;;;6.03;2.25;;;;;;;6.71;100.00;93448.25;5062536;28;20048;-78
2023/11/07 00:51:28;;;;;;;7.13;2.20;;;;;;;6.63;100.00;93430.50;5070238;28;20416;-78
2023/11/07 00:53:55;;;;;;;5.88;2.17;;;;;;;6.58;100.00;93432.78;5071395;28;20079;-78
2023/11/07 00:56:22;;;;;;;4.32;1.90;;;;;;;6.74;100.00;93459.84;5071461;28;20053;-80
2023/11/07 00:58:48;;;;;;;5.10;2.10;;;;;;;6.70;100.00;93461.97;5070274;28;20057;-80
2023/11/07 01:01:16;;;;;;;6.90;1.83;;;;;;;6.68;100.00;93461.38;5071337;28;20049;-80
2023/11/07 01:03:43;;;;;;;4.80;1.63;;;;;;;6.66;100.00;93465.84;5070179;28;20056;-80
2023/11/07 01:06:10;;;;;;;5.03;1.50;;;;;;;6.64;100.00;93468.63;5069531;28;20052;-79
2023/11/07 01:08:38;;;;;;;5.40;1.80;;;;;;;6.53;100.00;93461.41;5069480;28;20051;-79
2023/11/07 01:11:06;;;;;;;4.47;1.73;;;;;;;6.57;100.00;93460.06;5072661;28;20045;-79
2023/11/07 01:13:33;;;;;;;6.20;1.48;;;;;;;6.52;100.00;93452.16;5068373;28;20074;-79
2023/11/07 01:16:00;;;;;;;3.10;1.48;;;;;;;6.55;100.00;93459.47;5069242;28;20068;-79
2023/11/07 01:18:27;;;;;;;4.80;1.63;;;;;;;6.46;100.00;93456.22;5069061;28;20060;-79
2023/11/07 01:20:54;;;;;;;3.88;1.80;;;;;;;6.41;100.00;93466.16;5069746;28;20075;-79
2023/11/07 01:23:21;;;;;;;4.05;1.80;;;;;;;6.35;100.00;93462.53;5071649;28;20052;-79
2023/11/07 01:25:49;;;;;;;5.93;1.60;;;;;;;6.05;100.00;93433.69;5068128;28;20049;-81
2023/11/07 01:28:20;;;;;;;4.63;1.52;;;;;;;6.13;100.00;93447.19;5071664;28;20049;-80
2023/11/07 01:30:47;;;;;;;6.80;2.03;;;;;;;6.26;100.00;93476.38;5069361;28;20045;-81
2023/11/07 01:33:14;;;;;;;6.40;2.35;;;;;;;6.13;100.00;93459.94;5072391;28;20060;-80
2023/11/07 01:35:42;;;;;;;5.05;2.55;;;;;;;6.24;100.00;93479.09;5071021;28;20048;-81
2023/11/07 01:38:09;;;;;;;6.85;3.03;;;;;;;6.22;100.00;93483.59;5069072;28;20060;-80
2023/11/07 01:40:36;;;;;;;10.07;3.72;;;;;;;6.18;100.00;93479.81;5069204;28;20052;-81
2023/11/07 01:43:13;;;;;;;7.10;3.33;;;;;;;6.23;100.00;93484.38;5065558;28;20045;-81
2023/11/07 01:45:40;;;;;;;6.03;3.10;;;;;;;6.20;100.00;93479.63;5070984;28;20052;-82
2023/11/07 01:48:09;;;;;;;8.43;4.03;;;;;;;6.22;100.00;93481.03;5068682;28;20130;-82
2023/11/07 01:50:36;;;;;;;9.65;3.70;;;;;;;6.20;100.00;93482.97;5069966;28;20712;-82
2023/11/07 01:53:03;;;;;;;8.80;3.65;;;;;;;6.05;100.00;93462.56;5073413;28;20097;-82
2023/11/07 01:55:32;;;;;;;8.98;3.88;;;;;;;6.12;100.00;93481.28;5068821;28;20777;-82
2023/11/07 01:58:01;;;;;;;8.05;3.78;;;;;;;6.07;100.00;93480.25;5070065;28;20125;-80
2023/11/07 02:00:30;;;;;;;8.80;3.55;;;;;;;6.07;100.00;93485.34;5068191;28;20049;-80
2023/11/07 02:02:58;;;;;;;5.70;2.83;;;;;;;6.06;100.00;93483.75;5068573;28;20681;-81
2023/11/07 02:05:25;;;;;;;7.88;3.28;;;;;;;5.94;100.00;93473.97;5070132;28;20068;-81
2023/11/07 02:07:52;;;;;;;7.55;2.78;;;;;;;6.01;100.00;93481.69;5068003;28;20044;-81
2023/11/07 02:10:20;;;;;;;7.72;2.45;;;;;;;5.98;100.00;93484.59;5068357;28;20057;-80
2023/11/07 02:12:47;;;;;;;4.45;2.25;;;;;;;5.92;100.00;93477.66;5070839;28;20094;-80
2023/11/07 02:15:26;;;;;;;6.35;2.20;;;;;;;5.85;100.00;93478.34;5072491;28;20056;-80
2023/11/07 02:17:54;;;;;;;6.13;1.67;;;;;;;5.87;100.00;93473.84;5067789;28;20504;-80
2023/11/07 02:20:22;;;;;;;3.92;1.52;;;;;;;5.91;100.00;93469.19;5068125;28;20509;-80
2023/11/07 02:22:54;;;;;;;2.85;1.70;;;;;;;5.91;100.00;93474.28;5065210;28;20131;-80
2023/11/07 02:25:22;;;;;;;5.57;1.83;;;;;;;5.87;100.00;93484.06;5070817;28;20504;-80
2023/11/07 02:27:49;;;;;;;4.93;1.45;;;;;;;5.67;100.00;93457.47;5070041;28;20059;-79
2023/11/07 02:30:16;;;;;;;2.95;1.45;;;;;;;5.73;100.00;93485.63;5067907;28;20049;-79
2023/11/07 02:32:44;;;;;;;6.88;1.45;;;;;;;5.77;100.00;93491.16;5068113;28;20957;-79
2023/11/07 02:35:12;;;;;;;6.35;1.95;;;;;;;5.71;100.00;93487.56;5068042;28;20048;-79
2023/11/07 02:37:39;;;;;;;4.88;1.67;;;;;;;5.57;100.00;93460.25;5070234;28;20067;-79
2023/11/07 02:40:09;;;;;;;7.47;2.30;;;;;;;5.53;100.00;93467.47;5069230;28;20386;-79
2023/11/07 02:42:38;;;;;;;5.60;2.08;;;;;;;5.57;100.00;93465.34;5064487;28;20647;-79
2023/11/07 02:45:06;;;;;;;6.50;1.90;;;;;;;5.58;100.00;93475.38;5068800;28;20045;-79
2023/11/07 02:47:33;;;;;;;6.00;3.22;;;;;;;5.67;100.00;93495.69;5064959;28;20086;-80
2023/11/07 02:50:00;;;;;;;7.60;3.35;;;;;;;5.66;100.00;93491.56;5071210;28;20043;-80
2023/11/07 02:52:27;;;;;;;6.38;3.75;;;;;;;5.59;100.00;93491.44;5070380;28;20049;-80
2023/11/07 02:54:53;;;;;;;8.60;3.35;;;;;;;5.39;100.00;93484.28;5067011;28;20036;-80
2023/11/07 02:57:20;;;;;;;7.80;3.85;;;;;;;5.36;100.00;93494.81;5068232;28;20060;-80
2023/11/07 02:59:49;;;;;;;8.88;4.32;;;;;;;5.31;100.00;93494.53;5067575;28;20067;-80
2023/11/07 03:02:19;;;;;;;9.07;3.95;;;;;;;5.30;100.00;93482.75;5072451;28;20434;-80
2023/11/07 03:04:46;;;;;;;7.28;3.45;;;;;;;5.38;100.00;93487.00;5067314;28;20147;-81
2023/11/07 03:07:13;;;;;;;7.63;3.13;;;;;;;5.45;100.00;93495.53;5070445;28;20517;-81
2023/11/07 03:09:40;;;;;;;8.50;4.50;;;;;;;5.45;100.00;93498.88;5065882;28;20048;-81
2023/11/07 03:12:10;;;;;;;12.13;6.95;;;;;;;5.39;100.00;93493.69;5064272;28;20055;-80
2023/11/07 03:14:38;;;;;;;29.35;16.88;;;;;;;5.31;100.00;93490.22;5065153;28;20050;-80
2023/11/07 03:17:07;;;;;;;93.00;43.90;;;;;;;5.38;100.00;93500.53;5066749;28;20059;-80
2023/11/07 03:19:34;;;;;;;80.22;40.72;;;;;;;5.29;100.00;93486.28;5062072;28;20106;-80
2023/11/07 03:22:01;;;;;;;43.95;23.15;;;;;;;5.26;100.00;93477.22;5062608;28;20053;-81
2023/11/07 03:24:27;;;;;;;31.88;16.95;;;;;;;5.32;100.00;93501.22;5066623;28;20409;-82
2023/11/07 03:26:54;;;;;;;22.08;11.27;;;;;;;5.31;100.00;93505.50;5063452;28;20040;-79
2023/11/07 03:29:21;;;;;;;12.10;6.38;;;;;;;5.26;100.00;93501.88;5072046;28;20052;-80
2023/11/07 03:31:48;;;;;;;9.80;4.82;;;;;;;5.25;100.00;93503.66;5069260;28;20079;-79
2023/11/07 03:34:17;;;;;;;7.20;4.22;;;;;;;5.21;100.00;93492.22;5069400;28;20048;-81
2023/11/07 03:36:44;;;;;;;5.88;3.28;;;;;;;5.07;100.00;93488.63;5066787;28;20485;-81
2023/11/07 03:39:11;;;;;;;23.10;11.55;;;;;;;5.07;100.00;93499.63;5066651;28;20053;-81
2023/11/07 03:41:40;;;;;;;80.97;38.00;;;;;;;5.07;100.00;93496.28;5071352;28;20408;-81
2023/11/07 03:44:07;;;;;;;35.05;17.45;;;;;;;5.05;100.00;93493.88;5064044;28;20060;-81
2023/11/07 03:46:34;;;;;;;36.45;19.00;;;;;;;5.10;100.00;93502.78;5067378;28;20591;-81
2023/11/07 03:49:01;;;;;;;30.67;15.55;;;;;;;5.05;100.00;93504.06;5066102;28;20060;-82
2023/11/07 03:51:29;;;;;;;22.17;12.45;;;;;;;5.15;100.00;93514.06;5066773;28;20049;-83
2023/11/07 03:53:56;;;;;;;13.90;7.20;;;;;;;5.09;100.00;93519.81;5068441;28;20396;-81
2023/11/07 03:56:23;;;;;;;14.82;9.48;;;;;;;5.25;100.00;93528.31;5071039;28;20056;-82
2023/11/07 03:58:50;;;;;;;15.00;5.93;;;;;;;5.05;100.00;93498.97;5067059;28;20052;-82
2023/11/07 04:01:17;;;;;;;11.52;4.38;;;;;;;5.26;100.00;93524.81;5071171;28;20048;-81
2023/11/07 04:03:44;;;;;;;6.95;3.92;;;;;;;5.07;100.00;93509.00;5066275;28;20073;-81
2023/11/07 04:06:11;;;;;;;6.97;2.88;;;;;;;5.06;100.00;93513.28;5068785;28;20048;-81
2023/11/07 04:08:39;;;;;;;4.72;1.90;;;;;;;4.92;100.00;93509.72;5066719;28;20059;-81
2023/11/07 04:11:06;;;;;;;5.80;2.55;;;;;;;4.82;100.00;93509.16;5066078;28;20410;-81
2023/11/07 04:13:34;;;;;;;5.30;3.70;;;;;;;4.95;100.00;93529.75;5066574;28;20076;-81
2023/11/07 04:16:02;;;;;;;9.30;3.83;;;;;;;4.90;100.00;93528.66;5066621;28;20415;-82
2023/11/07 04:18:29;;;;;;;5.30;2.35;;;;;;;4.84;100.00;93521.69;5070964;28;20496;-82
2023/11/07 04:20:57;;;;;;;6.28;2.38;;;;;;;4.68;100.00;93513.19;5067671;28;20516;-82
2023/11/07 04:23:24;;;;;;;7.68;2.85;;;;;;;4.73;100.00;93520.31;5066250;28;20080;-81
2023/11/07 04:25:52;;;;;;;10.20;3.28;;;;;;;4.72;100.00;93522.06;5067291;28;20063;-81
2023/11/07 04:28:19;;;;;;;6.63;2.78;;;;;;;4.70;100.00;93521.44;5067346;28;20044;-81
2023/11/07 04:30:46;;;;;;;6.13;2.78;;;;;;;4.69;100.00;93517.31;5068544;28;20048;-81
2023/11/07 04:33:13;;;;;;;7.25;2.70;;;;;;;4.79;100.00;93522.19;5066161;28;20047;-81
2023/11/07 04:35:41;;;;;;;6.53;2.65;;;;;;;4.73;100.00;93520.31;5068800;28;20063;-82
2023/11/07 04:38:08;;;;;;;7.50;2.72;;;;;;;4.74;100.00;93521.91;5067782;28;20135;-82
2023/11/07 04:40:35;;;;;;;7.72;2.83;;;;;;;4.82;100.00;93526.97;5066730;28;20048;-79
2023/11/07 04:43:03;;;;;;;6.10;2.30;;;;;;;4.81;100.00;93521.06;5067523;28;20051;-82
2023/11/07 04:45:31;;;;;;;6.93;2.40;;;;;;;4.24;100.00;93438.94;5072154;28;20053;-81
2023/11/07 04:47:58;;;;;;;9.88;2.78;;;;;;;4.81;100.00;93523.59;5066142;28;20048;-81
2023/11/07 04:50:26;;;;;;;5.95;3.20;;;;;;;4.75;100.00;93520.94;5067928;28;20055;-81
2023/11/07 04:52:53;;;;;;;7.30;3.22;;;;;;;4.76;100.00;93525.06;5068326;28;20052;-82
2023/11/07 04:55:21;;;;;;;7.55;2.67;;;;;;;4.62;100.00;93501.09;5066305;28;20094;-82
2023/11/07 04:57:49;;;;;;;6.75;2.17;;;;;;;4.72;100.00;93522.06;5066410;28;20052;-81
2023/11/07 05:00:19;;;;;;;5.68;2.28;;;;;;;4.71;100.00;93523.00;5066725;28;20045;-81
2023/11/07 05:02:46;;;;;;;5.03;1.95;;;;;;;4.54;100.00;93512.91;5069090;28;20136;-81
2023/11/07 05:05:14;;;;;;;8.55;2.38;;;;;;;4.62;100.00;93522.25;5076297;28;20058;-81
2023/11/07 05:07:41;;;;;;;5.80;1.85;;;;;;;4.67;100.00;93529.38;5070276;28;20128;-81
2023/11/07 05:10:10;;;;;;;7.30;1.90;;;;;;;4.70;100.00;93529.06;5070737;28;20048;-81
2023/11/07 05:12:37;;;;;;;6.28;1.67;;;;;;;4.66;100.00;93530.34;5070023;28;20048;-81
2023/11/07 05:15:06;;;;;;;5.07;1.98;;;;;;;4.43;100.00;93515.81;5065295;28;20091;-81
2023/11/07 05:17:35;;;;;;;7.53;2.08;;;;;;;4.45;100.00;93511.38;5068773;28;20053;-81
2023/11/07 05:20:06;;;;;;;6.90;1.90;;;;;;;4.54;100.00;93527.38;5072247;28;20059;-81
2023/11/07 05:22:32;;;;;;;7.25;2.65;;;;;;;4.61;100.00;93540.22;5068498;28;20515;-81
2023/11/07 05:24:59;;;;;;;6.18;2.88;;;;;;;4.64;100.00;93540.69;5070824;28;20102;-81
2023/11/07 05:27:27;;;;;;;9.60;2.88;;;;;;;4.64;100.00;93529.72;5072398;28;20048;-82
2023/11/07 05:29:54;;;;;;;9.65;2.50;;;;;;;4.63;100.00;93551.81;5068963;28;20037;-81
2023/11/07 05:32:21;;;;;;;9.18;3.42;;;;;;;4.54;100.00;93538.34;5071484;28;20048;-81
2023/11/07 05:34:49;;;;;;;10.38;4.60;;;;;;;4.67;100.00;93557.38;5061905;28;20048;-81
2023/11/07 05:37:16;;;;;;;12.02;4.95;;;;;;;4.72;100.00;93562.00;5064025;28;20067;-80
2023/11/07 05:39:44;;;;;;;12.07;5.00;;;;;;;4.76;100.00;93568.31;5063640;28;20049;-80
2023/11/07 05:42:11;;;;;;;10.90;5.72;;;;;;;4.75;100.00;93577.72;5064714;28;20513;-81
2023/11/07 05:44:38;;;;;;;16.10;6.78;;;;;;;4.68;100.00;93575.03;5067817;28;20515;-80
2023/11/07 05:47:06;;;;;;;11.45;6.63;;;;;;;4.58;100.00;93568.56;5065931;28;20063;-80
2023/11/07 05:49:34;;;;;;;12.70;7.13;;;;;;;4.66;100.00;93578.69;5064695;28;20040;-80
2023/11/07 05:52:02;;;;;;;13.63;7.38;;;;;;;4.58;100.00;93579.50;5070080;28;20052;-81
2023/11/07 05:54:30;;;;;;;20.98;12.07;;;;;;;4.41;100.00;93571.91;5071014;28;20083;-81
2023/11/07 05:56:57;;;;;;;19.45;12.77;;;;;;;4.74;100.00;93596.50;5070995;28;20115;-81
2023/11/07 05:59:25;;;;;;;16.20;10.20;;;;;;;4.68;100.00;93574.25;5067681;28;20515;-81
2023/11/07 06:01:52;;;;;;;15.68;7.22;;;;;;;4.97;100.00;93608.50;5068470;28;20036;-81
2023/11/07 06:04:33;;;;;;;15.55;8.82;;;;;;;4.99;100.00;93608.34;5067920;28;20057;-81
2023/11/07 06:07:02;;;;;;;18.20;7.78;;;;;;;5.10;100.00;93618.19;5070884;28;20041;-81
2023/11/07 06:09:30;;;;;;;19.15;8.57;;;;;;;5.23;100.00;93617.63;5067787;28;20049;-81
2023/11/07 06:11:57;;;;;;;21.58;8.60;;;;;;;5.32;100.00;93624.28;5067221;28;20055;-81
2023/11/07 06:14:24;;;;;;;21.70;9.35;;;;;;;5.41;100.00;93625.03;5067234;28;20052;-81
2023/11/07 06:16:52;;;;;;;29.70;12.50;;;;;;;5.46;100.00;93619.44;5069001;28;20060;-81
2023/11/07 06:19:20;;;;;;;43.42;15.45;;;;;;;5.52;100.00;93626.41;5067548;28;20048;-81
2023/11/07 06:21:48;;;;;;;37.97;19.42;;;;;;;5.56;100.00;93626.88;5068479;28;20051;-81
2023/11/07 06:24:16;;;;;;;35.47;17.05;;;;;;;5.64;100.00;93636.22;5067756;28;20125;-81
2023/11/07 06:26:46;;;;;;;39.60;20.92;;;;;;;5.72;100.00;93638.72;5067954;28;20040;-81
2023/11/07 06:29:15;;;;;;;36.53;24.50;;;;;;;5.85;100.00;93638.16;5071386;28;20048;-81
2023/11/07 06:31:45;;;;;;;31.27;20.77;;;;;;;5.85;100.00;93626.22;5064434;28;20040;-79
2023/11/07 06:34:12;;;;;;;33.92;20.40;;;;;;;5.82;100.00;93606.16;5067883;28;20057;-81
2023/11/07 06:36:39;;;;;;;25.40;16.27;;;;;;;6.11;100.00;93635.28;5072962;28;20131;-80
2023/11/07 06:39:06;;;;;;;21.73;11.38;;;;;;;6.26;100.00;93639.66;5069555;28;20629;-80
2023/11/07 06:56:13;;;;;;;17.63;10.57;;;;;;;7.66;100.00;93651.09;5125730;27;20387;-79
2023/11/07 06:58:41;;;;;;;25.70;12.15;;;;;;;7.69;100.00;93656.63;5108400;28;20408;-80
2023/11/07 07:01:10;;;;;;;23.63;11.35;;;;;;;7.73;100.00;93659.66;5112183;28;20100;-80
2023/11/07 07:03:37;;;;;;;21.40;11.55;;;;;;;7.82;100.00;93658.56;5105142;28;20043;-80
2023/11/07 07:06:05;;;;;;;24.88;10.98;;;;;;;7.84;100.00;93650.69;5115478;28;20066;-81
2023/11/07 07:08:32;;;;;;;27.20;11.93;;;;;;;7.95;100.00;93654.53;5105166;28;20655;-81
2023/11/07 07:11:00;;;;;;;13.63;6.97;;;;;;;7.98;100.00;93643.94;5104673;28;20461;-81
2023/11/07 07:13:28;;;;;;;13.00;5.93;;;;;;;8.16;100.00;93657.09;5107030;28;20101;-81
2023/11/07 07:15:56;;;;;;;13.65;5.53;;;;;;;8.37;100.00;93655.50;5104529;28;20056;-81
2023/11/07 07:18:25;;;;;;;11.75;5.15;;;;;;;8.46;100.00;93651.03;5105107;28;20070;-81
2023/11/07 07:20:53;;;;;;;12.25;5.20;;;;;;;8.69;100.00;93655.97;5104925;28;20408;-81
2023/11/07 07:23:24;;;;;;;20.33;5.03;;;;;;;8.85;100.00;93651.56;5103339;28;20052;-82
2023/11/07 07:25:51;;;;;;;9.00;4.28;;;;;;;8.84;100.00;93644.06;5106770;28;20185;-81
2023/11/07 07:28:20;;;;;;;11.63;4.43;;;;;;;9.14;100.00;93659.19;5108235;28;20051;-81
2023/11/07 07:30:48;;;;;;;13.45;4.50;;;;;;;9.27;100.00;93649.03;5104168;28;20051;-82
2023/11/07 07:33:18;;;;;;;16.55;4.63;;;;;;;9.42;100.00;93638.63;5114318;28;20501;-81
2023/11/07 07:35:47;;;;;;;15.00;5.75;;;;;;;9.66;100.00;93653.69;5121535;28;20051;-81
2023/11/07 07:38:13;;;;;;;15.02;5.32;;;;;;;9.78;100.00;93653.94;5116564;28;20515;-81
2023/11/07 07:40:42;;;;;;;15.77;6.20;;;;;;;9.92;100.00;93657.31;5104598;28;20055;-81
2023/11/07 07:43:10;;;;;;;13.15;5.47;;;;;;;10.04;100.00;93658.31;5108386;28;20512;-81
2023/11/07 07:45:39;;;;;;;15.80;6.05;;;;;;;10.10;100.00;93654.97;5104999;28;20051;-81
2023/11/07 07:48:08;;;;;;;15.40;5.38;;;;;;;10.36;100.00;93655.19;5104305;28;20556;-81
2023/11/07 07:50:34;;;;;;;9.40;4.60;;;;;;;10.41;96.64;93663.09;5113833;28;20054;-81
2023/11/07 07:53:06;;;;;;;10.02;5.15;;;;;;;10.60;98.23;93653.06;5117320;28;20052;-80
2023/11/07 07:55:33;;;;;;;14.45;5.43;;;;;;;10.73;96.46;93649.72;5102179;28;20048;-81
2023/11/07 07:58:00;;;;;;;12.05;5.13;;;;;;;10.90;98.75;93644.94;5094209;28;20142;-81
2023/11/07 08:00:30;;;;;;;11.10;4.53;;;;;;;11.09;98.84;93646.69;5100089;28;20573;-81
2023/11/07 08:02:58;;;;;;;10.98;4.25;;;;;;;11.21;96.58;93633.19;5090572;28;20047;-81
2023/11/07 08:05:28;;;;;;;10.27;4.80;;;;;;;11.33;96.03;93630.75;5096364;28;20060;-81
2023/11/07 08:07:55;;;;;;;9.85;4.68;;;;;;;11.54;94.17;93645.16;5091096;28;20051;-82
2023/11/07 08:10:22;;;;;;;10.15;5.85;;;;;;;11.58;94.00;93627.50;5097125;28;20036;-81
2023/11/07 08:12:50;;;;;;;11.52;5.63;;;;;;;11.71;92.14;93621.53;5105086;28;20524;-81
2023/11/07 08:15:17;;;;;;;9.02;4.95;;;;;;;11.94;92.66;93633.84;5090176;28;20121;-81
2023/11/07 08:17:45;;;;;;;10.27;5.07;;;;;;;12.03;92.53;93632.63;5090442;28;20082;-81
2023/11/07 08:20:15;;;;;;;10.75;4.78;;;;;;;12.10;88.18;93630.03;5095732;28;20127;-82
2023/11/07 08:22:44;;;;;;;8.20;4.03;;;;;;;12.23;90.50;93611.09;5095419;28;20079;-82
2023/11/07 08:25:11;;;;;;;9.15;3.90;;;;;;;12.44;89.28;93614.31;5099154;28;20047;-82
2023/11/07 08:27:39;;;;;;;12.75;4.20;;;;;;;12.75;89.04;93624.75;5089641;28;20048;-82
2023/11/07 08:30:10;;;;;;;6.78;3.70;;;;;;;12.31;84.96;93519.91;5107340;28;20476;-82
2023/11/07 08:32:37;;;;;;;7.55;4.15;;;;;;;13.29;81.60;93632.75;5099280;28;20412;-82
2023/11/07 08:35:15;;;;;;;10.25;4.20;;;;;;;13.29;81.57;93619.06;5098915;28;20051;-81
2023/11/07 08:37:46;;;;;;;13.00;4.60;;;;;;;13.47;80.05;93629.41;5095976;28;20529;-82
2023/11/07 08:40:13;;;;;;;8.63;3.65;;;;;;;13.63;79.21;93627.22;5089577;28;20071;-82
2023/11/07 08:42:43;;;;;;;6.65;2.85;;;;;;;13.54;77.05;93602.72;5091928;28;20051;-82
2023/11/07 08:45:15;;;;;;;6.55;2.47;;;;;;;13.83;76.79;93633.91;5093889;28;20075;-82
2023/11/07 08:47:43;;;;;;;9.23;3.50;;;;;;;13.89;78.53;93627.91;5090407;28;20044;-82
2023/11/07 08:50:12;;;;;;;8.18;3.72;;;;;;;14.06;83.19;93625.47;5089384;28;20624;-82
2023/11/07 08:52:43;;;;;;;9.20;3.90;;;;;;;14.29;79.45;93621.34;5103278;28;20043;-82
2023/11/07 08:55:13;;;;;;;7.78;2.70;;;;;;;14.39;80.59;93600.94;5093386;28;20057;-82
2023/11/07 08:57:40;;;;;;;10.90;2.95;;;;;;;14.79;80.14;93635.72;5088886;28;20493;-82
2023/11/07 09:00:08;;;;;;;7.13;3.20;;;;;;;14.93;76.82;93625.94;5088977;28;20511;-82
2023/11/07 09:02:35;;;;;;;10.57;3.33;;;;;;;15.06;75.38;93637.03;5089162;28;20089;-83
2023/11/07 09:05:03;;;;;;;6.93;2.60;;;;;;;15.08;72.70;93632.44;5089053;28;20052;-82
2023/11/07 09:07:30;;;;;;;7.65;2.55;;;;;;;15.26;70.21;93641.84;5094324;28;20353;-82
2023/11/07 09:09:58;;;;;;;7.72;2.05;;;;;;;15.52;65.35;93639.00;5088839;28;20044;-82
2023/11/07 09:12:25;;;;;;;9.13;3.00;;;;;;;15.58;65.66;93631.09;5088631;28;20044;-81
2023/11/07 09:14:52;;;;;;;7.47;2.65;;;;;;;15.49;68.42;93588.44;5089214;28;20048;-82
2023/11/07 09:17:20;;;;;;;6.70;1.90;;;;;;;15.65;63.49;93630.97;5092773;28;20070;-82
2023/11/07 09:19:46;;;;;;;4.45;1.58;;;;;;;15.59;61.11;93634.47;5093840;28;20589;-83
2023/11/07 09:34:14;;;;;;;6.38;1.50;;;;;;;17.53;61.23;93617.19;5115848;27;20437;-81
2023/11/07 09:36:41;;;;;;;6.38;1.80;;;;;;;17.46;61.68;93619.19;5104298;28;20051;-81
2023/11/07 09:39:08;;;;;;;7.03;1.95;;;;;;;17.52;57.23;93607.03;5101929;28;20048;-81
2023/11/07 09:41:36;;;;;;;6.85;2.60;;;;;;;17.53;60.11;93611.97;5102562;28;20043;-81
2023/11/07 09:44:04;;;;;;;8.35;2.67;;;;;;;17.44;58.56;93605.63;5106986;28;20065;-82
2023/11/07 09:46:34;;;;;;;8.95;3.05;;;;;;;17.57;62.43;93605.28;5105664;28;20137;-81
2023/11/07 09:49:01;;;;;;;13.73;4.60;;;;;;;17.73;61.35;93598.44;5106325;28;20046;-81
2023/11/07 09:51:33;;;;;;;13.10;4.85;;;;;;;17.69;60.73;93568.00;5114958;28;20040;-81
2023/11/07 09:54:00;;;;;;;12.98;4.47;;;;;;;17.88;58.69;93566.59;5109343;28;20061;-81
2023/11/07 09:56:31;;;;;;;15.32;4.97;;;;;;;18.14;58.41;93586.84;5118517;28;20047;-81
2023/11/07 09:59:07;;;;;;;15.13;4.55;;;;;;;18.26;56.21;93574.50;5118431;27;20043;-81
2023/11/07 10:01:34;;;;;;;9.48;3.88;;;;;;;18.27;56.67;93563.06;5105281;28;20887;-81
2023/11/07 10:04:02;;;;;;;11.63;3.92;;;;;;;18.41;56.75;93570.44;5103243;28;20121;-82
2023/11/07 10:06:30;;;;;;;10.60;2.63;;;;;;;18.52;57.05;93559.06;5104939;28;20048;-82
2023/11/07 10:08:58;;;;;;;8.23;2.10;;;;;;;18.63;57.73;93559.13;5111730;28;20043;-82
2023/11/07 10:11:25;;;;;;;9.02;2.25;;;;;;;18.70;56.30;93562.28;5114983;28;20496;-82
2023/11/07 10:14:10;;;;;;;8.32;2.17;;;;;;;18.70;56.66;93537.06;5110486;28;20515;-81
2023/11/07 10:16:38;;;;;;;10.27;2.22;;;;;;;18.91;58.51;93544.19;5105556;28;20054;-81
2023/11/07 10:19:07;;;;;;;5.65;1.90;;;;;;;18.98;57.92;93546.56;5104479;28;20408;-81
2023/11/07 10:21:37;;;;;;;4.82;1.77;;;;;;;19.03;55.18;93538.78;5104905;28;20043;-81
2023/11/07 10:24:04;;;;;;;4.97;1.70;;;;;;;19.08;53.28;93537.00;5112624;27;20167;-81
2023/11/07 10:26:31;;;;;;;8.18;1.95;;;;;;;18.90;54.50;93540.03;5104882;28;20065;-81
2023/11/07 10:29:13;;;;;;;6.50;2.00;;;;;;;19.03;55.91;93525.75;5106751;28;20046;-81
2023/11/07 10:31:42;;;;;;;7.15;1.73;;;;;;;19.11;55.55;93521.91;5113860;28;20047;-81
2023/11/07 10:34:16;;;;;;;5.60;1.60;;;;;;;19.05;52.27;93510.69;5107260;28;20505;-81
2023/11/07 10:36:45;;;;;;;6.78;1.58;;;;;;;19.07;52.53;93511.25;5090149;28;20405;-81
2023/11/07 10:39:16;;;;;;;7.40;1.27;;;;;;;19.16;53.75;93496.66;5092424;28;20052;-81
2023/11/07 10:41:44;;;;;;;5.70;1.30;;;;;;;19.29;52.43;93505.81;5090379;28;20044;-81
2023/11/07 10:44:23;;;;;;;6.00;1.10;;;;;;;19.32;51.38;93509.72;5088093;28;20051;-81
2023/11/07 10:46:51;;;;;;;2.70;0.80;;;;;;;19.22;47.57;93494.88;5103119;28;20151;-81
2023/11/07 10:49:19;;;;;;;12.23;2.17;;;;;;;19.22;52.41;93484.47;5095249;28;20036;-81
2023/11/07 10:51:48;;;;;;;5.20;1.42;;;;;;;19.38;52.49;93490.47;5095890;28;20043;-81
2023/11/07 10:54:17;;;;;;;6.78;1.38;;;;;;;19.54;51.63;93477.47;5096723;28;20051;-81
2023/11/07 10:56:47;;;;;;;7.05;1.23;;;;;;;19.55;51.91;93476.44;5094009;28;20721;-81
2023/11/07 10:59:19;;;;;;;4.57;1.50;;;;;;;19.61;50.08;93478.00;5090644;28;20040;-81
2023/11/07 11:01:47;;;;;;;5.93;1.40;;;;;;;19.63;50.37;93478.53;5093133;28;20482;-81
2023/11/07 11:04:17;;;;;;;6.88;1.27;;;;;;;19.62;50.07;93467.31;5091780;28;20105;-81
2023/11/07 11:06:52;;;;;;;4.45;1.20;;;;;;;19.62;50.06;93480.34;5091857;28;20043;-78
2023/11/07 11:09:25;;;;;;;5.60;1.45;;;;;;;19.62;49.43;93485.56;5093876;28;20051;-80
2023/11/07 11:11:54;;;;;;;4.03;1.55;;;;;;;19.59;50.38;93472.28;5091583;28;20052;-82
2023/11/07 11:14:23;;;;;;;4.53;1.20;;;;;;;19.41;50.24;93445.69;5101362;28;20587;-83
2023/11/07 11:16:51;;;;;;;4.97;1.27;;;;;;;19.55;50.01;93460.81;5091595;28;20055;-82
2023/11/07 11:19:29;;;;;;;3.25;1.33;;;;;;;19.54;48.65;93474.88;5090438;28;20050;-82
2023/11/07 11:22:10;;;;;;;3.85;1.30;;;;;;;19.31;47.53;93443.06;5092441;28;20507;-82
2023/11/07 11:25:02;;;;;;;9.20;1.25;;;;;;;19.44;50.24;93466.00;5089482;28;20052;-82
2023/11/07 11:27:33;;;;;;;5.40;1.25;;;;;;;19.40;49.03;93472.00;5091830;28;20113;-82
2023/11/07 11:30:01;;;;;;;4.30;1.25;;;;;;;19.41;50.27;93458.72;5090984;28;20047;-82
2023/11/07 11:32:29;;;;;;;5.43;1.52;;;;;;;19.27;49.87;93442.81;5090194;28;20056;-82
2023/11/07 11:35:28;;;;;;;4.32;1.10;;;;;;;19.44;49.91;93468.59;5089362;28;20412;-82
2023/11/07 11:38:13;;;;;;;4.82;1.40;;;;;;;19.43;48.56;93474.84;5093038;28;20063;-82
2023/11/07 11:40:46;;;;;;;3.80;1.05;;;;;;;19.32;49.18;93465.47;5095382;28;20523;-81
2023/11/07 11:43:13;;;;;;;6.03;1.38;;;;;;;19.36;50.40;93477.69;5093149;28;20128;-81
2023/11/07 11:45:40;;;;;;;5.80;1.10;;;;;;;19.27;50.15;93468.06;5090409;28;20048;-82
2023/11/07 11:48:07;;;;;;;6.70;1.17;;;;;;;19.29;49.88;93471.97;5089825;28;20198;-82
2023/11/07 11:50:37;;;;;;;9.98;1.65;;;;;;;19.29;48.40;93468.56;5090336;28;20078;-82
2023/11/07 11:53:05;;;;;;;4.18;1.38;;;;;;;19.34;49.16;93466.75;5088165;28;20141;-81
2023/11/07 11:56:02;;;;;;;8.10;0.90;;;;;;;19.30;49.48;93462.34;5089309;28;20051;-81
2023/11/07 11:58:31;;;;;;;6.72;1.58;;;;;;;19.33;49.54;93464.41;5087938;28;20139;-81
2023/11/07 12:01:00;;;;;;;3.35;1.33;;;;;;;19.36;49.53;93450.88;5098245;28;20054;-81
2023/11/07 12:03:36;;;;;;;5.03;1.35;;;;;;;19.34;49.14;93453.75;5092305;28;20054;-80